Terminal Aerodrome Forecast
Issued by NWS

Home | Current Version | Previous Version | Text Only | Print | Product List | Glossary On
Versions: 1 2 3 4 5 6 7 8 9 10 11 12 13 14 15 16 17 18 19 20 21 22
000
FTUS43 KGLD 192324
TAFMCK
TAF
KMCK 192324Z 2000/2024 21006KT P6SM SCT270
     FM200600 25007KT P6SM SCT200
     FM202000 27012KT P6SM FEW280
     FM202200 27009KT P6SM FEW280=

USA.gov is the U.S. government's official web portal to all federal, state and local government web resources and services.